Time;durP1;ratioP1;P1;durP2;ratioP2;P2;SDS_P1;SDS_P2;PMS_P1;PMS_P2;Temp;Humidity;BMP_temperature;BMP_pressure;BME280_temperature;BME280_humidity;BME280_pressure;Samples;Min_cycle;Max_cycle;Signal;HPM_P1;HPM_P2
2022/02/23 00:01:18;;;;;;;0.70;0.50;;;;;;;;;;5096999;28;20016;-69
2022/02/23 00:03:44;;;;;;;1.30;0.57;;;;;;;;;;5096201;28;20043;-69
2022/02/23 00:06:11;;;;;;;1.98;0.90;;;;;;;;;;5096266;28;20019;-69
2022/02/23 00:08:37;;;;;;;1.50;0.70;;;;;;;;;;5092820;28;20039;-69
2022/02/23 00:11:03;;;;;;;1.92;0.80;;;;;;;;;;5096624;28;20032;-69
2022/02/23 00:13:29;;;;;;;1.17;0.73;;;;;;;;;;5100099;28;20034;-69
2022/02/23 00:15:55;;;;;;;1.40;0.88;;;;;;;;;;5102971;28;20470;-69
2022/02/23 00:18:21;;;;;;;1.05;0.90;;;;;;;;;;5096807;28;20456;-70
2022/02/23 00:20:48;;;;;;;0.98;0.63;;;;;;;;;;5093287;28;20027;-70
2022/02/23 00:23:14;;;;;;;1.50;0.80;;;;;;;;;;5094700;28;20032;-69
2022/02/23 00:25:41;;;;;;;1.60;0.75;;;;;;;;;;5105570;28;20035;-70
2022/02/23 00:28:07;;;;;;;0.77;0.70;;;;;;;;;;5100402;28;20052;-69
2022/02/23 00:30:33;;;;;;;0.60;0.57;;;;;;;;;;5096318;28;20031;-69
2022/02/23 00:32:59;;;;;;;1.30;0.77;;;;;;;;;;5075961;28;20070;-69
2022/02/23 00:35:25;;;;;;;1.25;0.80;;;;;;;;;;5093628;28;20116;-69
2022/02/23 00:37:51;;;;;;;1.17;0.60;;;;;;;;;;5086562;28;20102;-69
2022/02/23 00:40:17;;;;;;;0.70;0.50;;;;;;;;;;5081012;28;20028;-69
2022/02/23 00:42:43;;;;;;;0.98;0.40;;;;;;;;;;5096115;28;20028;-69
2022/02/23 00:45:09;;;;;;;0.68;0.40;;;;;;;;;;5095008;28;20031;-70
2022/02/23 00:47:36;;;;;;;1.38;0.20;;;;;;;;;;5074312;28;20133;-69
2022/02/23 00:50:02;;;;;;;1.20;0.60;;;;;;;;;;5095778;28;20499;-69
2022/02/23 00:52:28;;;;;;;1.48;0.50;;;;;;;;;;5095578;28;20024;-69
2022/02/23 00:54:54;;;;;;;0.82;0.50;;;;;;;;;;5096256;28;20027;-69
2022/02/23 00:57:20;;;;;;;2.15;0.60;;;;;;;;;;5095505;28;20068;-69
2022/02/23 00:59:46;;;;;;;1.65;0.50;;;;;;;;;;5073802;28;20046;-69
2022/02/23 01:02:12;;;;;;;1.73;0.60;;;;;;;;;;5076821;28;20020;-70
2022/02/23 01:04:38;;;;;;;0.55;0.50;;;;;;;;;;5104585;28;20104;-70
2022/02/23 01:07:05;;;;;;;0.85;0.60;;;;;;;;;;5100920;28;20107;-70
2022/02/23 01:09:31;;;;;;;0.43;0.40;;;;;;;;;;5094619;28;20467;-69
2022/02/23 01:11:57;;;;;;;1.95;0.57;;;;;;;;;;5092862;28;20028;-69
2022/02/23 01:14:23;;;;;;;0.60;0.47;;;;;;;;;;5103071;28;20023;-70
2022/02/23 01:16:49;;;;;;;1.60;0.80;;;;;;;;;;5096348;28;20055;-69
2022/02/23 01:19:15;;;;;;;0.77;0.50;;;;;;;;;;5103362;28;20090;-69
2022/02/23 01:21:41;;;;;;;2.10;0.60;;;;;;;;;;5104120;28;20093;-69
2022/02/23 01:24:07;;;;;;;0.80;0.57;;;;;;;;;;5094523;28;20472;-69
2022/02/23 01:26:33;;;;;;;0.40;0.40;;;;;;;;;;5092845;28;20024;-69
2022/02/23 01:28:59;;;;;;;0.75;0.30;;;;;;;;;;5094868;28;20579;-69
2022/02/23 01:31:25;;;;;;;0.80;0.50;;;;;;;;;;5095670;28;20103;-69
2022/02/23 01:33:51;;;;;;;0.68;0.40;;;;;;;;;;5077896;28;20028;-69
2022/02/23 01:36:17;;;;;;;0.52;0.45;;;;;;;;;;5095899;28;20536;-69
2022/02/23 01:38:43;;;;;;;0.65;0.50;;;;;;;;;;5091356;28;20436;-69
2022/02/23 01:41:09;;;;;;;0.47;0.40;;;;;;;;;;5094609;28;20071;-69
2022/02/23 01:43:35;;;;;;;0.40;0.30;;;;;;;;;;5074451;28;20119;-69
2022/02/23 01:46:01;;;;;;;0.17;0.17;;;;;;;;;;5095598;28;20067;-69
2022/02/23 01:48:27;;;;;;;2.30;0.43;;;;;;;;;;5095268;28;20051;-69
2022/02/23 01:50:53;;;;;;;0.47;0.40;;;;;;;;;;5091611;28;20107;-69
2022/02/23 01:53:19;;;;;;;0.60;0.38;;;;;;;;;;5092711;28;20103;-69
2022/02/23 01:55:46;;;;;;;0.30;0.25;;;;;;;;;;5095500;28;20668;-70
2022/02/23 01:58:12;;;;;;;0.45;0.40;;;;;;;;;;5095159;28;20028;-69
2022/02/23 02:00:38;;;;;;;0.93;0.40;;;;;;;;;;5077136;28;20032;-69
2022/02/23 02:03:04;;;;;;;0.95;0.40;;;;;;;;;;5093286;28;20439;-71
2022/02/23 02:05:30;;;;;;;1.30;0.50;;;;;;;;;;5074582;28;20028;-69
2022/02/23 02:07:56;;;;;;;1.25;0.65;;;;;;;;;;5094605;28;20055;-69
2022/02/23 02:10:22;;;;;;;1.80;0.60;;;;;;;;;;5095477;28;20099;-69
2022/02/23 02:12:48;;;;;;;1.10;0.70;;;;;;;;;;5095141;28;20020;-69
2022/02/23 02:15:14;;;;;;;0.85;0.25;;;;;;;;;;5086357;28;20052;-69
2022/02/23 02:17:41;;;;;;;0.73;0.40;;;;;;;;;;5091236;28;20107;-69
2022/02/23 02:20:08;;;;;;;1.05;0.40;;;;;;;;;;5094466;28;20146;-69
2022/02/23 02:22:34;;;;;;;1.02;0.45;;;;;;;;;;5095018;28;20035;-69
2022/02/23 02:25:00;;;;;;;1.88;0.57;;;;;;;;;;5094983;28;20024;-69
2022/02/23 02:27:26;;;;;;;0.38;0.30;;;;;;;;;;5098742;28;20391;-69
2022/02/23 02:29:52;;;;;;;1.60;0.40;;;;;;;;;;5095431;28;20089;-69
2022/02/23 02:32:19;;;;;;;0.68;0.43;;;;;;;;;;5078225;28;20028;-69
2022/02/23 02:34:45;;;;;;;1.88;0.70;;;;;;;;;;5099740;28;20040;-69
2022/02/23 02:37:12;;;;;;;1.00;0.65;;;;;;;;;;5098470;28;20031;-69
2022/02/23 02:39:38;;;;;;;1.90;0.70;;;;;;;;;;5098107;28;20026;-70
2022/02/23 02:42:04;;;;;;;0.82;0.47;;;;;;;;;;5097163;28;20085;-69
2022/02/23 02:44:30;;;;;;;0.32;0.25;;;;;;;;;;5095900;28;20054;-69
2022/02/23 02:46:56;;;;;;;0.90;0.57;;;;;;;;;;5097710;28;20032;-69
2022/02/23 02:49:22;;;;;;;4.10;0.50;;;;;;;;;;5098798;28;20075;-69
2022/02/23 02:51:48;;;;;;;1.13;0.57;;;;;;;;;;5080667;28;20023;-69
2022/02/23 02:54:15;;;;;;;0.80;0.47;;;;;;;;;;5097663;28;20077;-69
2022/02/23 02:56:41;;;;;;;1.27;0.22;;;;;;;;;;5075455;28;20027;-69
2022/02/23 02:59:07;;;;;;;0.68;0.35;;;;;;;;;;5097054;28;20056;-69
2022/02/23 03:01:34;;;;;;;0.68;0.40;;;;;;;;;;5106228;28;20028;-69
2022/02/23 03:04:00;;;;;;;0.60;0.35;;;;;;;;;;5104099;28;20024;-69
2022/02/23 03:06:26;;;;;;;0.93;0.65;;;;;;;;;;5098307;28;20055;-69
2022/02/23 03:08:53;;;;;;;2.15;0.88;;;;;;;;;;5094836;28;20074;-69
2022/02/23 03:11:19;;;;;;;3.22;0.90;;;;;;;;;;5077300;28;20046;-69
2022/02/23 03:13:45;;;;;;;0.60;0.40;;;;;;;;;;5104139;28;20027;-69
2022/02/23 03:16:13;;;;;;;0.95;0.60;;;;;;;;;;5102420;28;20035;-69
2022/02/23 03:18:39;;;;;;;1.23;0.70;;;;;;;;;;5080538;28;20024;-69
2022/02/23 03:21:05;;;;;;;2.00;0.43;;;;;;;;;;5078488;28;20046;-69
2022/02/23 03:23:32;;;;;;;0.35;0.20;;;;;;;;;;5076602;28;20028;-69
2022/02/23 03:25:58;;;;;;;2.65;0.60;;;;;;;;;;5097471;28;20048;-69
2022/02/23 03:28:24;;;;;;;1.08;0.75;;;;;;;;;;5097290;28;20055;-69
2022/02/23 03:30:50;;;;;;;1.27;0.70;;;;;;;;;;5102053;28;20020;-69
2022/02/23 03:33:16;;;;;;;0.93;0.40;;;;;;;;;;5109865;28;20038;-70
2022/02/23 03:35:43;;;;;;;0.90;0.32;;;;;;;;;;5093392;28;20024;-69
2022/02/23 03:38:10;;;;;;;0.90;0.50;;;;;;;;;;5098048;28;20107;-69
2022/02/23 03:40:36;;;;;;;1.17;0.50;;;;;;;;;;5098354;28;20028;-69
2022/02/23 03:43:03;;;;;;;1.35;0.60;;;;;;;;;;5098080;28;20093;-69
2022/02/23 03:45:29;;;;;;;0.50;0.40;;;;;;;;;;5079542;28;20527;-69
2022/02/23 03:47:55;;;;;;;2.40;0.28;;;;;;;;;;5077319;28;20161;-69
2022/02/23 03:50:21;;;;;;;1.17;0.40;;;;;;;;;;5095467;28;20411;-69
2022/02/23 03:52:47;;;;;;;0.77;0.40;;;;;;;;;;5107696;28;20522;-70
2022/02/23 03:55:13;;;;;;;1.83;0.50;;;;;;;;;;5100728;28;20396;-69
2022/02/23 03:57:39;;;;;;;2.22;0.50;;;;;;;;;;5079863;28;20051;-70
2022/02/23 04:00:06;;;;;;;0.85;0.30;;;;;;;;;;5107500;27;20028;-69
2022/02/23 04:02:32;;;;;;;0.38;0.30;;;;;;;;;;5118425;27;20059;-69
2022/02/23 04:04:58;;;;;;;1.55;0.50;;;;;;;;;;5122463;27;20019;-69
2022/02/23 04:07:24;;;;;;;1.20;0.50;;;;;;;;;;5102553;27;20039;-69
2022/02/23 04:09:50;;;;;;;1.63;0.57;;;;;;;;;;5109694;27;20035;-69
2022/02/23 04:12:16;;;;;;;0.85;0.55;;;;;;;;;;5108923;28;20031;-68
2022/02/23 04:14:42;;;;;;;0.70;0.30;;;;;;;;;;5104012;28;20034;-69
2022/02/23 04:17:09;;;;;;;0.28;0.22;;;;;;;;;;5108399;28;20028;-69
2022/02/23 04:19:35;;;;;;;0.30;0.30;;;;;;;;;;5076819;28;20027;-69
2022/02/23 04:22:01;;;;;;;0.30;0.20;;;;;;;;;;5097322;28;20035;-69
2022/02/23 04:24:27;;;;;;;0.30;0.20;;;;;;;;;;5096738;28;20020;-69
2022/02/23 04:26:53;;;;;;;0.20;0.10;;;;;;;;;;5093650;28;20055;-69
2022/02/23 04:29:19;;;;;;;1.23;0.50;;;;;;;;;;5076557;28;20047;-69
2022/02/23 04:31:45;;;;;;;0.82;0.40;;;;;;;;;;5079293;28;20115;-69
2022/02/23 04:34:11;;;;;;;0.80;0.50;;;;;;;;;;5079408;28;20111;-69
2022/02/23 04:36:37;;;;;;;1.05;0.45;;;;;;;;;;5078862;28;20119;-69
2022/02/23 04:39:04;;;;;;;1.17;0.40;;;;;;;;;;5094678;28;20024;-69
2022/02/23 04:41:30;;;;;;;1.08;0.50;;;;;;;;;;5094316;28;20024;-69
2022/02/23 04:43:57;;;;;;;0.20;0.20;;;;;;;;;;5104666;28;20514;-69
2022/02/23 04:46:23;;;;;;;0.63;0.20;;;;;;;;;;5109063;28;20027;-69
2022/02/23 04:48:50;;;;;;;0.32;0.22;;;;;;;;;;5109042;28;20082;-69
2022/02/23 04:51:16;;;;;;;1.75;0.45;;;;;;;;;;5109840;28;20603;-69
2022/02/23 04:53:42;;;;;;;0.70;0.60;;;;;;;;;;5089167;28;20020;-69
2022/02/23 04:56:08;;;;;;;0.40;0.38;;;;;;;;;;5092724;28;20019;-70
2022/02/23 04:58:35;;;;;;;0.88;0.40;;;;;;;;;;5109408;28;20172;-71
2022/02/23 05:01:01;;;;;;;0.73;0.50;;;;;;;;;;5092258;28;20028;-71
2022/02/23 05:03:27;;;;;;;0.47;0.22;;;;;;;;;;5109495;28;20448;-71
2022/02/23 05:05:53;;;;;;;0.30;0.22;;;;;;;;;;5089672;28;20042;-71
2022/02/23 05:08:19;;;;;;;0.45;0.30;;;;;;;;;;5094237;28;20525;-71
2022/02/23 05:10:45;;;;;;;0.82;0.50;;;;;;;;;;5078424;28;20055;-71
2022/02/23 05:13:12;;;;;;;1.38;0.40;;;;;;;;;;5096629;28;20089;-71
2022/02/23 05:15:38;;;;;;;1.23;0.40;;;;;;;;;;5104678;28;20031;-71
2022/02/23 05:18:07;;;;;;;1.60;0.40;;;;;;;;;;5093930;28;20024;-71
2022/02/23 05:20:34;;;;;;;2.15;0.50;;;;;;;;;;5093272;28;20032;-71
2022/02/23 05:23:00;;;;;;;1.13;0.47;;;;;;;;;;5096242;28;20024;-71
2022/02/23 05:25:26;;;;;;;2.85;0.50;;;;;;;;;;5096314;28;20031;-71
2022/02/23 05:27:53;;;;;;;0.50;0.35;;;;;;;;;;5096406;28;20060;-71
2022/02/23 05:30:19;;;;;;;0.45;0.30;;;;;;;;;;5075875;28;20481;-71
2022/02/23 05:32:45;;;;;;;1.25;0.38;;;;;;;;;;5090285;28;20151;-71
2022/02/23 05:35:11;;;;;;;0.68;0.30;;;;;;;;;;5107220;28;20020;-70
2022/02/23 05:37:37;;;;;;;0.40;0.40;;;;;;;;;;5081315;28;20394;-71
2022/02/23 05:40:04;;;;;;;0.98;0.40;;;;;;;;;;5078466;28;20105;-71
2022/02/23 05:42:30;;;;;;;0.55;0.40;;;;;;;;;;5101497;28;20103;-71
2022/02/23 05:44:56;;;;;;;0.80;0.50;;;;;;;;;;5106139;28;20077;-71
2022/02/23 05:47:23;;;;;;;1.55;0.60;;;;;;;;;;5109578;28;20043;-71
2022/02/23 05:49:49;;;;;;;1.83;0.60;;;;;;;;;;5096327;28;20040;-72
2022/02/23 05:52:15;;;;;;;3.33;1.75;;;;;;;;;;5096938;28;20031;-71
2022/02/23 05:54:42;;;;;;;2.65;1.48;;;;;;;;;;5091786;28;20395;-71
2022/02/23 05:57:08;;;;;;;2.47;1.00;;;;;;;;;;5109640;28;20031;-71
2022/02/23 05:59:34;;;;;;;4.40;2.28;;;;;;;;;;5109137;28;20035;-71
2022/02/23 06:02:00;;;;;;;3.88;1.90;;;;;;;;;;5080200;28;20056;-71
2022/02/23 06:04:26;;;;;;;3.78;2.13;;;;;;;;;;5082489;28;20028;-71
2022/02/23 06:06:52;;;;;;;5.40;2.38;;;;;;;;;;5081749;28;20032;-71
2022/02/23 06:09:18;;;;;;;4.65;2.10;;;;;;;;;;5082482;28;20525;-71
2022/02/23 06:11:44;;;;;;;4.75;2.28;;;;;;;;;;5096399;28;20024;-71
2022/02/23 06:14:11;;;;;;;10.00;5.07;;;;;;;;;;5103436;27;20035;-72
2022/02/23 06:16:37;;;;;;;9.85;4.65;;;;;;;;;;5084246;28;20081;-73
2022/02/23 06:19:03;;;;;;;8.10;3.67;;;;;;;;;;5102403;27;20391;-73
2022/02/23 06:21:30;;;;;;;5.05;2.10;;;;;;;;;;5119460;27;20023;-71
2022/02/23 06:23:56;;;;;;;6.78;2.85;;;;;;;;;;5079084;28;20024;-71
2022/02/23 06:26:22;;;;;;;5.95;2.92;;;;;;;;;;5096641;28;20077;-70
2022/02/23 06:28:49;;;;;;;4.97;2.13;;;;;;;;;;5099053;28;20052;-71
2022/02/23 06:31:15;;;;;;;1.58;0.88;;;;;;;;;;5097876;28;20396;-71
2022/02/23 06:33:45;;;;;;;6.25;3.15;;;;;;;;;;5099441;28;20175;-70
2022/02/23 06:36:11;;;;;;;10.98;5.40;;;;;;;;;;5111070;28;20077;-70
2022/02/23 06:38:41;;;;;;;8.93;5.00;;;;;;;;;;5077271;28;20032;-71
2022/02/23 06:41:12;;;;;;;9.70;4.93;;;;;;;;;;5097306;28;20476;-71
2022/02/23 06:43:38;;;;;;;3.10;1.58;;;;;;;;;;5097404;28;20533;-71
2022/02/23 06:46:04;;;;;;;8.45;4.57;;;;;;;;;;5080531;28;20081;-71
2022/02/23 06:48:32;;;;;;;8.82;4.90;;;;;;;;;;5079905;28;20042;-70
2022/02/23 06:50:57;;;;;;;9.70;5.50;;;;;;;;;;5095846;28;20066;-71
2022/02/23 06:53:23;;;;;;;9.20;4.80;;;;;;;;;;5077997;28;20434;-71
2022/02/23 06:55:49;;;;;;;10.38;5.32;;;;;;;;;;5088185;28;20019;-71
2022/02/23 06:58:15;;;;;;;12.77;5.57;;;;;;;;;;5084072;28;20047;-71
2022/02/23 07:00:42;;;;;;;11.00;5.65;;;;;;;;;;5081380;28;20032;-72
2022/02/23 07:03:08;;;;;;;8.23;4.28;;;;;;;;;;5080153;28;20032;-73
2022/02/23 07:05:34;;;;;;;6.57;3.80;;;;;;;;;;5095485;28;20399;-73
2022/02/23 07:08:05;;;;;;;8.15;4.53;;;;;;;;;;5097711;28;20049;-72
2022/02/23 07:10:31;;;;;;;9.00;4.57;;;;;;;;;;5098887;28;20028;-73
2022/02/23 07:12:58;;;;;;;11.32;5.70;;;;;;;;;;5098313;28;20035;-72
2022/02/23 07:15:25;;;;;;;9.90;5.18;;;;;;;;;;5108388;28;20472;-72
2022/02/23 07:17:51;;;;;;;10.32;5.10;;;;;;;;;;5094206;28;20485;-73
2022/02/23 07:20:18;;;;;;;5.72;3.15;;;;;;;;;;5078933;28;20035;-73
2022/02/23 07:22:44;;;;;;;4.70;2.22;;;;;;;;;;5099030;28;20035;-74
2022/02/23 07:25:11;;;;;;;6.70;3.03;;;;;;;;;;5080629;28;20472;-72
2022/02/23 07:27:37;;;;;;;5.95;3.10;;;;;;;;;;5097469;28;20038;-71
2022/02/23 07:30:05;;;;;;;7.90;3.35;;;;;;;;;;5096373;28;20032;-73
2022/02/23 07:32:32;;;;;;;6.68;4.13;;;;;;;;;;5094763;28;20020;-74
2022/02/23 07:34:59;;;;;;;7.45;3.30;;;;;;;;;;5109053;28;20138;-73
2022/02/23 07:37:25;;;;;;;2.28;1.15;;;;;;;;;;5081884;28;20456;-74
2022/02/23 07:39:53;;;;;;;3.63;0.98;;;;;;;;;;5080304;28;20047;-74
2022/02/23 07:42:19;;;;;;;0.98;0.70;;;;;;;;;;5097597;28;20037;-74
2022/02/23 07:44:46;;;;;;;4.18;1.60;;;;;;;;;;5093359;28;20067;-73
2022/02/23 07:47:12;;;;;;;6.68;1.98;;;;;;;;;;5091084;28;20143;-74
2022/02/23 07:49:38;;;;;;;4.90;1.55;;;;;;;;;;5097844;28;20047;-74
2022/02/23 07:52:05;;;;;;;2.65;1.65;;;;;;;;;;5098003;28;20023;-74
2022/02/23 07:54:31;;;;;;;6.97;3.90;;;;;;;;;;5097772;28;20070;-73
2022/02/23 07:56:57;;;;;;;9.82;3.92;;;;;;;;;;5094955;28;20051;-73
2022/02/23 07:59:23;;;;;;;4.93;2.90;;;;;;;;;;5076606;28;20020;-74
2022/02/23 08:01:50;;;;;;;5.15;2.60;;;;;;;;;;5088341;28;20020;-73
2022/02/23 08:04:17;;;;;;;7.10;3.83;;;;;;;;;;5100754;28;20035;-73
2022/02/23 08:06:43;;;;;;;5.38;3.08;;;;;;;;;;5080080;28;20503;-73
2022/02/23 08:09:10;;;;;;;5.00;3.05;;;;;;;;;;5096160;28;20028;-73
2022/02/23 08:11:37;;;;;;;1.77;1.42;;;;;;;;;;5093916;28;20388;-73
2022/02/23 08:14:06;;;;;;;2.38;1.25;;;;;;;;;;5108249;28;20028;-73
2022/02/23 08:19:36;;;;;;;2.75;1.70;;;;;;;;;;5097397;28;20039;-73
2022/02/23 08:22:05;;;;;;;5.47;2.70;;;;;;;;;;5097571;28;20023;-73
2022/02/23 08:24:33;;;;;;;5.20;2.90;;;;;;;;;;5095704;28;20104;-72
2022/02/23 08:26:59;;;;;;;;;;;;;;;;;;5095344;28;20034;-73
2022/02/23 08:29:25;;;;;;;4.22;1.70;;;;;;;;;;5094376;28;19916;-73
2022/02/23 08:31:51;;;;;;;5.22;2.40;;;;;;;;;;5096894;28;20312;-73
2022/02/23 08:34:18;;;;;;;8.88;2.25;;;;;;;;;;5096864;28;20051;-74
2022/02/23 08:36:45;;;;;;;9.23;2.67;;;;;;;;;;5096762;28;20020;-74
2022/02/23 08:39:11;;;;;;;4.97;1.92;;;;;;;;;;5095482;28;20099;-73
2022/02/23 08:41:37;;;;;;;3.83;1.92;;;;;;;;;;5093291;28;20101;-73
2022/02/23 08:44:06;;;;;;;5.85;1.83;;;;;;;;;;5096714;28;20060;-74
2022/02/23 08:46:33;;;;;;;4.43;1.60;;;;;;;;;;5096572;28;20047;-73
2022/02/23 08:49:00;;;;;;;3.35;1.38;;;;;;;;;;5096882;28;20115;-74
2022/02/23 08:51:26;;;;;;;2.58;1.65;;;;;;;;;;5096565;28;20019;-73
2022/02/23 08:53:52;;;;;;;3.58;1.70;;;;;;;;;;5093187;28;20023;-72
2022/02/23 08:56:18;;;;;;;2.53;1.25;;;;;;;;;;5094943;28;20020;-72
2022/02/23 08:58:44;;;;;;;1.23;0.95;;;;;;;;;;5078775;28;20073;-73
2022/02/23 09:01:10;;;;;;;2.00;1.08;;;;;;;;;;5096166;28;20020;-72
2022/02/23 09:03:36;;;;;;;1.83;1.15;;;;;;;;;;5096227;28;20019;-73
2022/02/23 09:06:02;;;;;;;1.98;1.13;;;;;;;;;;5094541;28;20016;-73
2022/02/23 09:08:28;;;;;;;0.80;0.63;;;;;;;;;;5093714;28;20032;-73
2022/02/23 09:10:54;;;;;;;1.52;0.90;;;;;;;;;;5095796;28;20039;-73
2022/02/23 09:13:20;;;;;;;1.08;0.60;;;;;;;;;;5079841;28;20024;-73
2022/02/23 09:15:46;;;;;;;2.28;0.80;;;;;;;;;;5088504;28;20027;-74
2022/02/23 09:18:12;;;;;;;1.08;0.77;;;;;;;;;;5095628;28;20040;-73
2022/02/23 09:20:38;;;;;;;0.80;0.45;;;;;;;;;;5092504;28;20507;-73
2022/02/23 09:23:04;;;;;;;1.42;0.63;;;;;;;;;;5077443;28;20024;-74
2022/02/23 09:25:30;;;;;;;1.33;0.80;;;;;;;;;;5102808;28;20472;-73
2022/02/23 09:27:56;;;;;;;1.08;0.60;;;;;;;;;;5101900;28;20027;-73
2022/02/23 09:30:22;;;;;;;1.23;0.65;;;;;;;;;;5076008;28;20154;-73
2022/02/23 09:32:49;;;;;;;2.05;0.40;;;;;;;;;;5107909;28;20024;-73
2022/02/23 09:35:16;;;;;;;1.70;0.47;;;;;;;;;;5079012;28;20543;-73
2022/02/23 09:37:42;;;;;;;0.93;0.52;;;;;;;;;;5108672;28;20023;-72
2022/02/23 09:40:09;;;;;;;1.63;0.50;;;;;;;;;;5104687;28;20511;-72
2022/02/23 09:42:35;;;;;;;0.52;0.30;;;;;;;;;;5100237;28;20076;-73
2022/02/23 09:45:03;;;;;;;0.45;0.30;;;;;;;;;;5080584;28;20355;-72
2022/02/23 09:47:32;;;;;;;1.00;0.50;;;;;;;;;;5097180;28;20177;-73
2022/02/23 09:49:58;;;;;;;0.40;0.30;;;;;;;;;;5081088;28;20293;-72
2022/02/23 09:52:25;;;;;;;0.93;0.50;;;;;;;;;;5099974;28;20028;-73
2022/02/23 09:54:51;;;;;;;2.78;0.43;;;;;;;;;;5100105;28;20399;-73
2022/02/23 09:57:18;;;;;;;0.40;0.35;;;;;;;;;;5082450;28;20019;-72
2022/02/23 09:59:44;;;;;;;2.28;0.60;;;;;;;;;;5093523;28;20024;-73
2022/02/23 10:02:13;;;;;;;0.65;0.40;;;;;;;;;;5080857;28;20028;-73
2022/02/23 10:04:40;;;;;;;0.40;0.35;;;;;;;;;;5099981;28;20638;-73
2022/02/23 10:07:07;;;;;;;0.37;0.30;;;;;;;;;;5100126;28;20035;-73
2022/02/23 10:09:41;;;;;;;0.47;0.30;;;;;;;;;;5099220;28;20040;-73
2022/02/23 10:12:07;;;;;;;0.32;0.22;;;;;;;;;;5110761;28;20077;-72
2022/02/23 10:14:33;;;;;;;0.65;0.20;;;;;;;;;;5106291;28;20027;-72
2022/02/23 10:16:59;;;;;;;0.30;0.20;;;;;;;;;;5099413;28;20465;-73
2022/02/23 10:19:25;;;;;;;0.40;0.13;;;;;;;;;;5099644;28;20554;-72
2022/02/23 10:21:52;;;;;;;0.20;0.20;;;;;;;;;;5080744;28;20026;-72
2022/02/23 10:24:38;;;;;;;0.30;0.10;;;;;;;;;;5099751;28;20028;-72
2022/02/23 10:27:11;;;;;;;0.47;0.30;;;;;;;;;;5097636;28;20385;-73
2022/02/23 10:29:52;;;;;;;0.45;0.20;;;;;;;;;;5095248;28;20044;-72
2022/02/23 10:32:19;;;;;;;0.10;0.10;;;;;;;;;;5110231;28;20379;-72
2022/02/23 10:35:04;;;;;;;0.70;0.30;;;;;;;;;;5099611;28;20032;-73
2022/02/23 10:37:31;;;;;;;0.73;0.30;;;;;;;;;;5081903;28;20024;-72
2022/02/23 10:40:00;;;;;;;0.85;0.30;;;;;;;;;;5081418;28;20242;-73
2022/02/23 10:42:29;;;;;;;0.63;0.38;;;;;;;;;;5098783;28;20503;-73
2022/02/23 10:44:56;;;;;;;0.40;0.22;;;;;;;;;;5096151;28;20024;-73
2022/02/23 10:47:24;;;;;;;0.30;0.30;;;;;;;;;;5096051;28;20019;-73
2022/02/23 10:50:04;;;;;;;0.30;0.22;;;;;;;;;;5089148;28;20406;-73
2022/02/23 10:52:35;;;;;;;0.40;0.30;;;;;;;;;;5100064;28;20035;-73
2022/02/23 10:55:20;;;;;;;0.30;0.13;;;;;;;;;;5099076;28;20059;-73
2022/02/23 10:57:54;;;;;;;0.10;0.10;;;;;;;;;;5098619;28;20031;-72
2022/02/23 11:00:20;;;;;;;0.77;0.47;;;;;;;;;;5081862;28;20393;-74
2022/02/23 11:02:47;;;;;;;0.80;0.28;;;;;;;;;;5109211;28;20027;-73
2022/02/23 11:05:14;;;;;;;0.30;0.20;;;;;;;;;;5095628;28;20441;-73
2022/02/23 11:07:44;;;;;;;1.65;0.30;;;;;;;;;;5098177;28;20060;-70
2022/02/23 11:10:13;;;;;;;0.40;0.20;;;;;;;;;;5097962;28;20377;-68
2022/02/23 11:13:06;;;;;;;0.55;0.30;;;;;;;;;;5097933;28;20020;-69
2022/02/23 11:15:32;;;;;;;0.40;0.22;;;;;;;;;;5104233;28;20035;-67
2022/02/23 11:17:58;;;;;;;0.73;0.30;;;;;;;;;;5094755;28;20046;-68
2022/02/23 11:20:29;;;;;;;0.60;0.30;;;;;;;;;;5094726;28;20032;-75
2022/02/23 11:22:58;;;;;;;1.25;0.25;;;;;;;;;;5096939;28;20346;-76
2022/02/23 11:25:28;;;;;;;0.43;0.30;;;;;;;;;;5092145;28;20103;-69
2022/02/23 11:27:56;;;;;;;0.30;0.20;;;;;;;;;;5094807;28;20016;-71
2022/02/23 11:30:26;;;;;;;0.17;0.17;;;;;;;;;;5097346;28;20099;-72
2022/02/23 11:32:52;;;;;;;0.35;0.25;;;;;;;;;;5093006;28;20024;-71
2022/02/23 11:35:37;;;;;;;0.75;0.20;;;;;;;;;;5077125;28;20548;-70
2022/02/23 11:38:03;;;;;;;0.20;0.20;;;;;;;;;;5096303;28;20028;-71
2022/02/23 11:40:29;;;;;;;0.88;0.20;;;;;;;;;;5107748;28;20040;-71
2022/02/23 11:42:55;;;;;;;1.15;0.28;;;;;;;;;;5085142;28;20106;-71
2022/02/23 11:45:22;;;;;;;0.10;0.10;;;;;;;;;;5088876;28;20028;-70
2022/02/23 11:47:48;;;;;;;0.98;0.30;;;;;;;;;;5106297;28;20528;-71
2022/02/23 11:50:24;;;;;;;1.05;0.25;;;;;;;;;;5108561;28;20047;-71
2022/02/23 11:52:51;;;;;;;0.40;0.20;;;;;;;;;;5107251;28;20027;-70
2022/02/23 11:55:23;;;;;;;0.20;0.20;;;;;;;;;;5089799;28;20027;-70
2022/02/23 11:57:52;;;;;;;0.20;0.20;;;;;;;;;;5089089;28;20084;-71
2022/02/23 12:00:30;;;;;;;0.45;0.28;;;;;;;;;;5107290;28;20034;-73
2022/02/23 12:03:01;;;;;;;0.15;0.15;;;;;;;;;;5088338;28;20106;-71
2022/02/23 12:05:44;;;;;;;0.65;0.20;;;;;;;;;;5106227;28;20031;-71
2022/02/23 12:08:28;;;;;;;0.20;0.20;;;;;;;;;;5108415;28;20042;-71
2022/02/23 12:10:54;;;;;;;0.32;0.20;;;;;;;;;;5089816;28;20035;-70
2022/02/23 12:13:37;;;;;;;0.50;0.10;;;;;;;;;;5100541;27;20030;-71
2022/02/23 12:16:22;;;;;;;0.70;0.20;;;;;;;;;;5102761;28;20037;-71
2022/02/23 12:18:49;;;;;;;0.22;0.20;;;;;;;;;;5085693;28;20520;-71
2022/02/23 12:21:15;;;;;;;0.70;0.30;;;;;;;;;;5102878;27;20377;-72
2022/02/23 12:23:44;;;;;;;0.45;0.10;;;;;;;;;;5101217;28;20035;-71
2022/02/23 12:26:12;;;;;;;0.40;0.20;;;;;;;;;;5068299;28;20020;-71
2022/02/23 12:28:39;;;;;;;0.28;0.13;;;;;;;;;;5087568;28;20047;-69
2022/02/23 12:31:18;;;;;;;2.63;0.30;;;;;;;;;;5092544;28;20020;-70
2022/02/23 12:33:45;;;;;;;0.20;0.20;;;;;;;;;;5097534;28;20022;-71
2022/02/23 12:36:13;;;;;;;0.38;0.20;;;;;;;;;;5100908;28;20072;-70
2022/02/23 12:38:49;;;;;;;0.10;0.10;;;;;;;;;;5100679;28;20071;-70
2022/02/23 12:41:17;;;;;;;0.85;0.20;;;;;;;;;;5102256;28;20393;-71
2022/02/23 12:43:43;;;;;;;0.30;0.20;;;;;;;;;;5085781;28;20034;-70
2022/02/23 12:46:09;;;;;;;0.63;0.20;;;;;;;;;;5099655;27;20104;-70
2022/02/23 12:48:35;;;;;;;0.45;0.17;;;;;;;;;;5078531;28;20043;-70
2022/02/23 12:51:03;;;;;;;0.10;0.10;;;;;;;;;;5084766;28;20031;-70
2022/02/23 12:53:39;;;;;;;1.20;0.15;;;;;;;;;;5075212;28;20115;-70
2022/02/23 12:56:19;;;;;;;0.15;0.10;;;;;;;;;;5096139;28;20082;-70
2022/02/23 12:58:45;;;;;;;0.35;0.15;;;;;;;;;;5096279;28;20028;-71
2022/02/23 13:01:19;;;;;;;0.57;0.20;;;;;;;;;;5095946;28;20477;-71
2022/02/23 13:03:45;;;;;;;0.10;0.10;;;;;;;;;;5077875;28;20496;-71
2022/02/23 13:06:11;;;;;;;0.10;0.10;;;;;;;;;;5095720;28;20026;-71
2022/02/23 13:08:37;;;;;;;0.10;0.00;;;;;;;;;;5108788;28;20039;-71
2022/02/23 13:11:03;;;;;;;0.75;0.10;;;;;;;;;;5095578;28;20024;-71
2022/02/23 13:13:40;;;;;;;0.10;0.10;;;;;;;;;;5079789;28;20118;-71
2022/02/23 13:16:06;;;;;;;0.05;0.05;;;;;;;;;;5100784;28;20020;-71
2022/02/23 13:18:35;;;;;;;0.80;0.10;;;;;;;;;;5095644;28;20016;-71
2022/02/23 13:21:12;;;;;;;0.15;0.10;;;;;;;;;;5094083;28;20416;-71
2022/02/23 13:23:51;;;;;;;0.10;0.10;;;;;;;;;;5091509;28;20096;-71
2022/02/23 13:26:17;;;;;;;1.17;0.28;;;;;;;;;;5107435;28;20067;-71
2022/02/23 13:29:08;;;;;;;0.35;0.10;;;;;;;;;;5095159;28;20457;-71
2022/02/23 13:31:55;;;;;;;0.22;0.22;;;;;;;;;;5078686;28;20044;-70
2022/02/23 13:34:23;;;;;;;0.38;0.10;;;;;;;;;;5077198;28;20047;-70
2022/02/23 13:36:49;;;;;;;0.45;0.20;;;;;;;;;;5078424;28;20392;-70
2022/02/23 13:39:23;;;;;;;0.15;0.15;;;;;;;;;;5095292;28;20088;-70
2022/02/23 13:42:09;;;;;;;0.30;0.20;;;;;;;;;;5091533;28;20134;-71
2022/02/23 13:44:45;;;;;;;0.20;0.10;;;;;;;;;;5107118;28;20115;-71
2022/02/23 13:47:13;;;;;;;0.10;0.10;;;;;;;;;;5106705;28;20365;-71
2022/02/23 13:49:58;;;;;;;0.10;0.10;;;;;;;;;;5095561;28;20044;-71
2022/02/23 13:52:24;;;;;;;0.10;0.10;;;;;;;;;;5095222;28;20473;-71
2022/02/23 13:55:25;;;;;;;2.78;0.45;;;;;;;;;;5095478;28;20047;-71
2022/02/23 13:57:51;;;;;;;3.80;0.10;;;;;;;;;;5033007;28;20022;-70
2022/02/23 14:00:17;;;;;;;1.25;0.50;;;;;;;;;;5083380;28;20549;-71
2022/02/23 14:02:44;;;;;;;1.45;0.30;;;;;;;;;;5090230;28;20020;-71
2022/02/23 14:05:12;;;;;;;0.35;0.20;;;;;;;;;;5094847;28;20032;-71
2022/02/23 14:07:55;;;;;;;0.52;0.30;;;;;;;;;;5095413;28;20028;-71
2022/02/23 14:10:25;;;;;;;3.17;1.52;;;;;;;;;;5094980;28;20027;-69
2022/02/23 14:12:52;;;;;;;2.10;1.40;;;;;;;;;;5092515;28;20044;-70
2022/02/23 14:15:19;;;;;;;0.82;0.60;;;;;;;;;;5104491;28;20040;-68
2022/02/23 14:17:45;;;;;;;1.27;1.17;;;;;;;;;;5088997;28;20016;-71
2022/02/23 14:20:13;;;;;;;0.57;0.50;;;;;;;;;;5093348;28;20032;-68
2022/02/23 14:22:41;;;;;;;1.27;0.60;;;;;;;;;;5076904;28;20403;-69
2022/02/23 14:25:08;;;;;;;1.30;0.20;;;;;;;;;;5097834;28;20440;-68
2022/02/23 14:27:35;;;;;;;0.20;0.17;;;;;;;;;;5097588;28;20049;-68
2022/02/23 14:30:02;;;;;;;0.47;0.20;;;;;;;;;;5077405;28;20055;-67
2022/02/23 14:32:29;;;;;;;0.88;0.20;;;;;;;;;;5095174;28;20035;-67
2022/02/23 14:35:06;;;;;;;0.75;0.32;;;;;;;;;;5093236;28;20058;-69
2022/02/23 14:37:34;;;;;;;0.10;0.10;;;;;;;;;;5079766;28;20070;-69
2022/02/23 14:40:01;;;;;;;0.10;0.10;;;;;;;;;;5098055;28;20481;-70
2022/02/23 14:42:28;;;;;;;0.77;0.40;;;;;;;;;;5095722;28;20039;-68
2022/02/23 14:44:55;;;;;;;0.30;0.20;;;;;;;;;;5109229;28;20077;-67
2022/02/23 14:47:21;;;;;;;0.60;0.20;;;;;;;;;;5096352;28;20025;-68
2022/02/23 14:49:47;;;;;;;0.20;0.10;;;;;;;;;;5098732;28;20028;-68